createdAt,value
2022-08-07T00:00:07.818Z,13.50
2022-08-07T00:07:01.277Z,13.50
2022-08-07T00:09:35.795Z,13.50
2022-08-07T00:16:54.540Z,13.40
2022-08-07T00:19:26.052Z,13.40
2022-08-07T00:22:02.115Z,13.40
2022-08-07T00:28:55.712Z,13.30
2022-08-07T00:31:38.213Z,13.20
2022-08-07T00:34:10.912Z,13.10
2022-08-07T00:36:42.999Z,13.00
2022-08-07T00:39:20.734Z,13.00
2022-08-07T00:41:53.521Z,12.90
2022-08-07T00:44:30.632Z,12.90
2022-08-07T00:47:02.171Z,12.90
2022-08-07T00:50:21.325Z,12.90
2022-08-07T01:00:57.923Z,12.90
2022-08-07T01:07:09.708Z,12.80
2022-08-07T01:13:36.345Z,12.80
2022-08-07T01:16:08.196Z,12.70
2022-08-07T01:18:38.645Z,12.70
2022-08-07T01:21:22.651Z,13.30
2022-08-07T01:27:58.990Z,12.70
2022-08-07T01:34:53.972Z,12.70
2022-08-07T01:37:25.388Z,12.60
2022-08-07T01:40:00.632Z,12.60
2022-08-07T01:43:05.609Z,12.60
2022-08-07T01:45:40.253Z,12.60
2022-08-07T01:48:29.713Z,12.50
2022-08-07T01:51:24.095Z,12.40
2022-08-07T01:54:08.553Z,12.40
2022-08-07T01:56:50.812Z,12.40
2022-08-07T01:59:30.957Z,12.40
2022-08-07T02:02:33.011Z,12.40
2022-08-07T02:09:51.555Z,12.30
2022-08-07T02:16:33.877Z,12.30
2022-08-07T02:23:23.808Z,12.30
2022-08-07T02:34:24.369Z,12.20
2022-08-07T02:36:56.847Z,12.30
2022-08-07T02:39:43.436Z,12.30
2022-08-07T02:42:44.420Z,12.30
2022-08-07T02:45:59.408Z,12.30
2022-08-07T02:48:03.047Z,12.30
2022-08-07T02:50:36.569Z,12.30
2022-08-07T02:53:27.619Z,12.30
2022-08-07T02:56:03.644Z,12.30
2022-08-07T02:58:37.322Z,12.30
2022-08-07T03:01:15.941Z,12.30
2022-08-07T03:58:32.612Z,12.90
2022-08-07T04:00:13.266Z,13.00
2022-08-07T04:02:57.006Z,13.00
2022-08-07T04:05:39.565Z,13.00
2022-08-07T04:08:16.362Z,13.00
2022-08-07T04:15:08.057Z,13.10
2022-08-07T04:18:31.303Z,13.20
2022-08-07T04:24:47.246Z,13.30
2022-08-07T04:27:25.402Z,13.40
2022-08-07T04:34:03.930Z,13.50
2022-08-07T04:36:49.428Z,13.50
2022-08-07T04:39:25.494Z,13.60
2022-08-07T04:42:28.750Z,13.60
2022-08-07T04:45:02.851Z,13.70
2022-08-07T04:48:01.308Z,13.70
2022-08-07T04:50:36.283Z,13.70
2022-08-07T04:58:15.732Z,13.90
2022-08-07T05:00:14.603Z,14.00
2022-08-07T05:07:19.490Z,14.00
2022-08-07T05:09:56.751Z,14.10
2022-08-07T05:16:32.055Z,14.20
2022-08-07T05:19:02.758Z,14.30
2022-08-07T05:26:13.544Z,14.40
2022-08-07T05:28:33.635Z,14.50
2022-08-07T05:31:03.689Z,14.60
2022-08-07T05:38:08.448Z,14.80
2022-08-07T05:40:50.745Z,15.00
2022-08-07T05:44:11.737Z,15.10
2022-08-07T05:47:18.567Z,15.30
2022-08-07T05:49:53.289Z,15.40
2022-08-07T05:56:33.137Z,15.60
2022-08-07T05:59:04.815Z,15.80
2022-08-07T06:01:36.189Z,15.80
2022-08-07T06:16:10.078Z,16.30
2022-08-07T06:23:46.048Z,16.60
2022-08-07T06:30:36.146Z,16.80
2022-08-07T06:33:19.432Z,17.00
2022-08-07T06:36:13.381Z,17.00
2022-08-07T06:46:53.295Z,17.20
2022-08-07T06:49:31.644Z,17.30
2022-08-07T07:04:28.140Z,17.50
2022-08-07T07:07:10.766Z,17.60
2022-08-07T07:09:48.516Z,17.70
2022-08-07T07:20:19.142Z,17.90
2022-08-07T07:26:36.850Z,18.30
2022-08-07T07:29:39.656Z,18.30
2022-08-07T07:31:59.458Z,18.40
2022-08-07T07:34:48.641Z,18.50
2022-08-07T07:37:49.942Z,18.60
2022-08-07T07:41:00.104Z,18.60
2022-08-07T07:44:14.417Z,18.70
2022-08-07T07:46:38.457Z,18.80
2022-08-07T07:50:34.815Z,18.90
2022-08-07T07:52:35.971Z,18.90
2022-08-07T07:55:05.651Z,19.00
2022-08-07T07:57:51.574Z,19.10
2022-08-07T08:00:31.237Z,19.10
2022-08-07T08:03:08.038Z,19.10
2022-08-07T08:05:54.472Z,19.20
2022-08-07T08:08:34.764Z,19.30
2022-08-07T08:11:08.656Z,19.40
2022-08-07T08:13:53.890Z,19.40
2022-08-07T08:16:31.033Z,19.50
2022-08-07T08:19:17.626Z,19.60
2022-08-07T08:22:08.130Z,19.70
2022-08-07T09:16:22.155Z,19.90
2022-08-07T09:19:50.964Z,20.00
2022-08-07T09:24:31.146Z,20.30
2022-08-07T09:30:03.264Z,21.00
2022-08-07T09:37:14.726Z,20.60
2022-08-07T09:40:25.454Z,20.40
2022-08-07T09:44:03.203Z,20.20
2022-08-07T09:50:39.845Z,19.90
2022-08-07T09:53:12.665Z,19.80
2022-08-07T09:56:03.490Z,19.80
2022-08-07T09:58:48.651Z,19.80
2022-08-07T10:01:52.239Z,19.90
2022-08-07T10:04:33.409Z,19.90
2022-08-07T10:07:25.606Z,19.90
2022-08-07T10:14:01.992Z,19.90
2022-08-07T10:16:38.676Z,20.20
2022-08-07T10:32:06.776Z,22.50
2022-08-07T10:35:25.495Z,22.20
2022-08-07T10:38:21.884Z,22.00
2022-08-07T11:00:09.980Z,22.40
2022-08-07T11:03:10.898Z,22.40
2022-08-07T11:45:38.598Z,22.90
2022-08-07T11:57:03.869Z,22.30
2022-08-07T12:00:10.172Z,22.30
2022-08-07T12:06:55.282Z,22.90
2022-08-07T12:09:33.359Z,23.20
2022-08-07T12:16:28.773Z,22.70
2022-08-07T12:23:37.350Z,22.50
2022-08-07T12:26:23.452Z,22.20
2022-08-07T12:29:37.645Z,22.10
2022-08-07T12:36:32.857Z,22.40
2022-08-07T12:39:09.352Z,22.90
2022-08-07T12:50:39.126Z,23.30
2022-08-07T12:58:19.605Z,23.30
2022-08-07T13:06:04.831Z,23.50
2022-08-07T13:08:33.258Z,23.40
2022-08-07T13:11:10.016Z,23.40
2022-08-07T13:13:53.798Z,23.10
2022-08-07T13:16:32.915Z,22.80
2022-08-07T13:24:04.055Z,22.60
2022-08-07T13:26:03.226Z,22.70
2022-08-07T13:28:37.040Z,22.50
2022-08-07T13:35:21.516Z,22.30
2022-08-07T13:37:58.621Z,22.20
2022-08-07T13:40:42.275Z,22.20
2022-08-07T13:43:13.345Z,22.30
2022-08-07T13:46:12.454Z,22.30
2022-08-07T13:48:38.634Z,22.30
2022-08-07T13:51:27.092Z,22.40
2022-08-07T13:54:01.502Z,22.40
2022-08-07T13:56:41.246Z,22.50
2022-08-07T13:59:21.962Z,22.50
2022-08-07T14:02:04.862Z,22.50
2022-08-07T14:04:50.219Z,22.40
2022-08-07T14:07:24.342Z,22.40
2022-08-07T14:10:02.407Z,22.40
2022-08-07T14:12:54.873Z,22.40
2022-08-07T14:15:35.143Z,22.40
2022-08-07T14:18:23.942Z,22.40
2022-08-07T14:21:08.138Z,22.60
2022-08-07T14:24:01.642Z,22.90
2022-08-07T14:26:34.140Z,23.10
2022-08-07T14:29:08.747Z,23.30
2022-08-07T14:31:57.785Z,23.20
2022-08-07T14:34:45.778Z,22.90
2022-08-07T14:37:16.866Z,22.80
2022-08-07T14:40:15.701Z,22.60
2022-08-07T14:43:55.924Z,22.70
2022-08-07T14:45:46.982Z,22.50
2022-08-07T14:48:19.957Z,22.40
2022-08-07T14:50:51.492Z,22.30
2022-08-07T14:54:08.799Z,22.10
2022-08-07T14:56:13.280Z,22.00
2022-08-07T14:58:45.361Z,21.90
2022-08-07T15:01:22.708Z,21.80
2022-08-07T15:03:54.320Z,21.70
2022-08-07T15:06:26.383Z,21.80
2022-08-07T15:08:56.232Z,21.90
2022-08-07T15:11:54.195Z,21.80
2022-08-07T15:14:25.496Z,21.80
2022-08-07T15:17:01.278Z,21.80
2022-08-07T18:12:07.902Z,19.40
2022-08-07T18:14:02.416Z,19.50
2022-08-07T18:21:08.114Z,19.40
2022-08-07T18:22:26.923Z,19.40
2022-08-07T18:25:23.741Z,19.30
2022-08-07T18:32:03.068Z,19.20
2022-08-07T18:35:00.837Z,19.20
2022-08-07T18:46:59.640Z,19.00
2022-08-07T19:13:22.038Z,18.20
2022-08-07T19:16:04.375Z,18.20
2022-08-07T19:18:56.358Z,18.00
2022-08-07T19:26:23.356Z,17.90
2022-08-07T19:31:01.923Z,17.80
2022-08-07T19:33:13.209Z,17.70
2022-08-07T19:36:32.393Z,17.70
2022-08-07T19:39:09.141Z,17.60
2022-08-07T19:41:44.787Z,17.60
2022-08-07T19:45:08.554Z,17.50
2022-08-07T19:47:44.636Z,17.50
2022-08-07T19:50:41.376Z,17.50
2022-08-07T19:57:59.984Z,17.40
2022-08-07T20:02:52.142Z,17.30
2022-08-07T20:06:30.485Z,17.30
2022-08-07T20:09:02.978Z,17.20
2022-08-07T20:15:48.373Z,17.20
2022-08-07T20:18:18.198Z,17.10
2022-08-07T20:20:50.740Z,17.10
2022-08-07T20:31:44.349Z,17.10
2022-08-07T20:40:02.080Z,17.10
2022-08-07T20:46:26.188Z,17.00
2022-08-07T20:57:38.462Z,16.90
2022-08-07T21:00:18.455Z,16.90
2022-08-07T21:03:00.972Z,16.80
2022-08-07T21:05:51.125Z,16.80
2022-08-07T21:08:33.333Z,16.80
2022-08-07T21:11:10.618Z,16.80
2022-08-07T21:14:32.028Z,16.70
2022-08-07T21:18:00.721Z,16.70
2022-08-07T22:10:28.735Z,16.50
2022-08-07T22:17:19.342Z,16.30
2022-08-07T23:00:19.296Z,15.70
2022-08-07T23:03:13.335Z,15.70
2022-08-07T23:10:34.019Z,15.70
2022-08-07T23:13:15.163Z,15.60
2022-08-07T23:20:40.439Z,15.50
2022-08-07T23:32:49.067Z,15.50
2022-08-07T23:35:03.943Z,15.50
2022-08-07T23:38:00.882Z,15.50
2022-08-07T23:49:21.126Z,15.40
2022-08-07T23:53:01.036Z,15.30
